Time;durP1;ratioP1;P1;durP2;ratioP2;P2;SDS_P1;SDS_P2;PMS_P1;PMS_P2;Temp;Humidity;BMP_temperature;BMP_pressure;BME280_temperature;BME280_humidity;BME280_pressure;Samples;Min_cycle;Max_cycle;Signal;HPM_P1;HPM_P2
2021/07/25 00:00:09;;;;;;;41.70;24.50;;;;;;;;;;5057723;28;20020;-66
2021/07/25 00:02:34;;;;;;;41.67;24.85;;;;;;;;;;5062464;28;20275;-67
2021/07/25 00:05:00;;;;;;;39.33;23.15;;;;;;;;;;5062757;28;20032;-66
2021/07/25 00:07:25;;;;;;;40.78;22.77;;;;;;;;;;5063625;28;20024;-66
2021/07/25 00:09:50;;;;;;;43.90;23.00;;;;;;;;;;5054748;28;20591;-66
2021/07/25 00:12:15;;;;;;;38.40;23.10;;;;;;;;;;5055736;28;20276;-66
2021/07/25 00:14:40;;;;;;;45.63;22.70;;;;;;;;;;5053788;28;20277;-65
2021/07/25 00:17:06;;;;;;;44.77;23.53;;;;;;;;;;5056146;28;20290;-66
2021/07/25 00:19:31;;;;;;;33.90;20.77;;;;;;;;;;5062592;28;20306;-65
2021/07/25 00:21:56;;;;;;;35.58;21.88;;;;;;;;;;5054315;28;20678;-66
2021/07/25 00:24:28;;;;;;;34.97;20.55;;;;;;;;;;5052869;28;20563;-65
2021/07/25 00:26:56;;;;;;;36.40;21.05;;;;;;;;;;5096583;22;20040;-65
2021/07/25 00:29:21;;;;;;;38.83;22.05;;;;;;;;;;5076804;28;20025;-65
2021/07/25 00:31:46;;;;;;;40.90;22.40;;;;;;;;;;5083098;28;20018;-65
2021/07/25 00:34:11;;;;;;;41.07;21.67;;;;;;;;;;5075668;28;20024;-65
2021/07/25 00:36:37;;;;;;;37.15;22.02;;;;;;;;;;5073214;28;20299;-65
2021/07/25 00:39:02;;;;;;;44.67;20.53;;;;;;;;;;5057565;28;20484;-65
2021/07/25 00:41:27;;;;;;;36.88;21.67;;;;;;;;;;5063527;28;20293;-65
2021/07/25 00:43:52;;;;;;;40.10;20.60;;;;;;;;;;5061982;28;20344;-65
2021/07/25 00:46:18;;;;;;;37.33;20.53;;;;;;;;;;5061905;28;20313;-65
2021/07/25 00:48:44;;;;;;;39.05;20.60;;;;;;;;;;5061257;28;20287;-65
2021/07/25 00:51:09;;;;;;;31.55;20.23;;;;;;;;;;5061893;28;20428;-66
2021/07/25 00:53:36;;;;;;;37.05;19.67;;;;;;;;;;5056794;28;20117;-65
2021/07/25 00:56:02;;;;;;;41.00;22.52;;;;;;;;;;5058624;28;20473;-66
2021/07/25 00:58:27;;;;;;;38.58;21.83;;;;;;;;;;5059330;28;20110;-66
2021/07/25 01:00:53;;;;;;;35.55;21.05;;;;;;;;;;5062661;28;20536;-66
2021/07/25 01:03:30;;;;;;;35.00;20.20;;;;;;;;;;5061407;28;20032;-66
2021/07/25 01:06:00;;;;;;;31.13;19.10;;;;;;;;;;5063077;28;20311;-65
2021/07/25 01:08:25;;;;;;;37.47;21.88;;;;;;;;;;5054729;28;20420;-66
2021/07/25 01:10:52;;;;;;;37.08;18.55;;;;;;;;;;5069691;28;20025;-66
2021/07/25 01:13:19;;;;;;;37.33;20.48;;;;;;;;;;5068981;28;20489;-66
2021/07/25 01:15:44;;;;;;;37.65;19.15;;;;;;;;;;5061607;28;20028;-66
2021/07/25 01:18:10;;;;;;;35.75;20.80;;;;;;;;;;5059398;28;20093;-66
2021/07/25 01:20:35;;;;;;;34.45;19.75;;;;;;;;;;5061054;28;20384;-67
2021/07/25 01:23:01;;;;;;;35.70;19.83;;;;;;;;;;5058638;28;20021;-66
2021/07/25 01:25:26;;;;;;;34.53;19.40;;;;;;;;;;5059953;28;20025;-66
2021/07/25 01:27:57;;;;;;;34.75;19.10;;;;;;;;;;5058836;28;20366;-67
2021/07/25 01:30:24;;;;;;;27.83;15.95;;;;;;;;;;5059930;28;20115;-66
2021/07/25 01:32:50;;;;;;;31.95;18.60;;;;;;;;;;5061347;28;20447;-66
2021/07/25 01:35:16;;;;;;;32.58;17.55;;;;;;;;;;5059265;28;20026;-67
2021/07/25 01:37:42;;;;;;;30.42;17.30;;;;;;;;;;5060432;28;20099;-66
2021/07/25 01:40:26;;;;;;;29.80;15.23;;;;;;;;;;5059885;28;20021;-65
2021/07/25 01:42:52;;;;;;;31.73;17.38;;;;;;;;;;5060521;28;20067;-66
2021/07/25 01:45:17;;;;;;;25.20;16.70;;;;;;;;;;5060925;28;20020;-66
2021/07/25 01:47:42;;;;;;;40.65;16.98;;;;;;;;;;5059703;28;20491;-65
2021/07/25 01:50:08;;;;;;;31.88;17.95;;;;;;;;;;5060452;28;20028;-65
2021/07/25 01:52:33;;;;;;;32.60;18.10;;;;;;;;;;5058773;28;20500;-65
2021/07/25 01:54:59;;;;;;;31.50;16.55;;;;;;;;;;5059474;28;20025;-66
2021/07/25 01:57:24;;;;;;;29.85;17.83;;;;;;;;;;5061884;28;20078;-66
2021/07/25 01:59:49;;;;;;;28.45;17.17;;;;;;;;;;5061163;28;20525;-65
2021/07/25 02:02:14;;;;;;;26.00;16.77;;;;;;;;;;5060147;28;20051;-65
2021/07/25 02:04:40;;;;;;;27.63;17.73;;;;;;;;;;5061757;28;20267;-65
2021/07/25 02:07:05;;;;;;;25.40;17.03;;;;;;;;;;5060268;28;20286;-66
2021/07/25 02:09:32;;;;;;;33.47;16.08;;;;;;;;;;5059286;28;20319;-65
2021/07/25 02:11:57;;;;;;;27.52;16.33;;;;;;;;;;5061742;28;20320;-65
2021/07/25 02:14:22;;;;;;;30.90;15.63;;;;;;;;;;5064329;28;20104;-66
2021/07/25 02:16:48;;;;;;;26.75;15.43;;;;;;;;;;5056658;28;20256;-66
2021/07/25 02:19:13;;;;;;;31.33;16.57;;;;;;;;;;5050792;28;20089;-66
2021/07/25 02:21:38;;;;;;;26.00;14.60;;;;;;;;;;5052567;28;20272;-66
2021/07/25 02:24:03;;;;;;;26.92;16.42;;;;;;;;;;5059665;28;20090;-67
2021/07/25 02:26:29;;;;;;;28.27;16.63;;;;;;;;;;5060535;28;20058;-66
2021/07/25 02:28:54;;;;;;;25.57;15.73;;;;;;;;;;5058779;28;20023;-67
2021/07/25 02:31:19;;;;;;;23.57;15.27;;;;;;;;;;5059876;28;20464;-66
2021/07/25 02:33:44;;;;;;;28.40;16.10;;;;;;;;;;5060664;28;21744;-67
2021/07/25 02:36:09;;;;;;;26.40;14.47;;;;;;;;;;5059526;28;20632;-66
2021/07/25 02:38:34;;;;;;;23.93;16.13;;;;;;;;;;5062598;28;20274;-66
2021/07/25 02:41:00;;;;;;;30.70;15.55;;;;;;;;;;5061930;28;20362;-66
2021/07/25 02:43:25;;;;;;;25.10;14.68;;;;;;;;;;5067319;28;20032;-67
2021/07/25 02:45:51;;;;;;;24.90;15.55;;;;;;;;;;5059453;28;20024;-66
2021/07/25 02:48:16;;;;;;;23.93;15.10;;;;;;;;;;5040765;28;20101;-67
2021/07/25 02:50:41;;;;;;;26.60;16.47;;;;;;;;;;5060866;28;20266;-67
2021/07/25 02:53:06;;;;;;;31.87;16.10;;;;;;;;;;5058783;28;20020;-66
2021/07/25 02:55:31;;;;;;;25.27;15.43;;;;;;;;;;5059236;28;20275;-66
2021/07/25 02:57:56;;;;;;;24.43;15.23;;;;;;;;;;5059299;28;20067;-66
2021/07/25 03:00:22;;;;;;;26.40;16.47;;;;;;;;;;5059144;28;20282;-66
2021/07/25 03:02:47;;;;;;;29.35;15.20;;;;;;;;;;5061247;28;20302;-66
2021/07/25 03:05:12;;;;;;;29.02;16.20;;;;;;;;;;5060155;28;20028;-66
2021/07/25 03:07:37;;;;;;;30.90;17.08;;;;;;;;;;5060136;28;20384;-66
2021/07/25 03:10:03;;;;;;;29.65;17.13;;;;;;;;;;5059341;28;20154;-66
2021/07/25 03:12:28;;;;;;;32.53;17.00;;;;;;;;;;5058668;28;20103;-67
2021/07/25 03:14:53;;;;;;;31.90;17.73;;;;;;;;;;5061073;28;20025;-67
2021/07/25 03:17:18;;;;;;;30.93;16.70;;;;;;;;;;5057363;28;20592;-66
2021/07/25 03:19:43;;;;;;;28.85;15.73;;;;;;;;;;5059877;28;20281;-67
2021/07/25 03:22:10;;;;;;;32.90;16.53;;;;;;;;;;5062499;28;20032;-66
2021/07/25 03:24:36;;;;;;;26.65;15.93;;;;;;;;;;5064705;28;20274;-67
2021/07/25 03:27:01;;;;;;;30.05;15.90;;;;;;;;;;5063278;28;20051;-67
2021/07/25 03:29:26;;;;;;;24.70;15.57;;;;;;;;;;5060281;28;20115;-66
2021/07/25 03:31:51;;;;;;;28.07;16.53;;;;;;;;;;5063516;28;20021;-66
2021/07/25 03:34:17;;;;;;;25.23;14.70;;;;;;;;;;5063350;28;20404;-66
2021/07/25 03:36:43;;;;;;;23.47;14.80;;;;;;;;;;5063738;28;20013;-66
2021/07/25 03:39:10;;;;;;;27.48;15.57;;;;;;;;;;5063379;28;20278;-67
2021/07/25 03:41:35;;;;;;;24.65;15.55;;;;;;;;;;5061949;28;20121;-66
2021/07/25 03:44:00;;;;;;;27.17;13.97;;;;;;;;;;5063357;28;20557;-66
2021/07/25 03:46:25;;;;;;;26.20;14.70;;;;;;;;;;5062897;28;20271;-66
2021/07/25 03:48:50;;;;;;;24.40;15.27;;;;;;;;;;5059848;28;20748;-67
2021/07/25 03:51:15;;;;;;;23.67;14.60;;;;;;;;;;5063461;28;20027;-67
2021/07/25 03:53:41;;;;;;;24.75;15.30;;;;;;;;;;5064212;28;20266;-67
2021/07/25 03:56:06;;;;;;;22.02;13.75;;;;;;;;;;5060831;28;20050;-67
2021/07/25 03:58:31;;;;;;;33.88;16.05;;;;;;;;;;5064098;28;20021;-66
2021/07/25 04:00:56;;;;;;;25.40;14.27;;;;;;;;;;5063623;28;20036;-66
2021/07/25 04:03:22;;;;;;;20.42;12.77;;;;;;;;;;5060716;28;20321;-64
2021/07/25 04:05:47;;;;;;;22.73;14.17;;;;;;;;;;5056523;28;20028;-64
2021/07/25 04:08:12;;;;;;;24.30;14.87;;;;;;;;;;5060863;28;20025;-64
2021/07/25 04:10:41;;;;;;;25.10;14.15;;;;;;;;;;5063559;28;20267;-65
2021/07/25 04:13:06;;;;;;;26.38;14.98;;;;;;;;;;5063337;28;20021;-65
2021/07/25 04:15:32;;;;;;;23.15;13.80;;;;;;;;;;5062816;28;20032;-66
2021/07/25 04:17:57;;;;;;;24.30;14.40;;;;;;;;;;5061742;28;20048;-65
2021/07/25 04:20:22;;;;;;;22.57;13.57;;;;;;;;;;5062214;28;20118;-65
2021/07/25 04:22:47;;;;;;;25.03;14.83;;;;;;;;;;5061525;28;20766;-66
2021/07/25 04:25:12;;;;;;;26.40;13.95;;;;;;;;;;5062580;28;20052;-66
2021/07/25 04:27:39;;;;;;;27.13;13.60;;;;;;;;;;5060503;28;20078;-65
2021/07/25 04:30:05;;;;;;;22.30;13.65;;;;;;;;;;5060240;28;20468;-65
2021/07/25 04:32:30;;;;;;;20.35;13.43;;;;;;;;;;5060040;28;20075;-65
2021/07/25 04:34:55;;;;;;;27.20;15.13;;;;;;;;;;5063481;28;20427;-65
2021/07/25 04:37:27;;;;;;;25.35;13.95;;;;;;;;;;5060982;28;20016;-66
2021/07/25 04:39:52;;;;;;;20.50;12.85;;;;;;;;;;5060712;28;20034;-66
2021/07/25 04:42:19;;;;;;;24.17;14.13;;;;;;;;;;5063582;28;20444;-65
2021/07/25 04:44:51;;;;;;;30.23;15.38;;;;;;;;;;5061396;28;21914;-66
2021/07/25 04:47:19;;;;;;;28.63;15.65;;;;;;;;;;5061083;28;20375;-65
2021/07/25 04:50:16;;;;;;;20.02;13.23;;;;;;;;;;5060105;28;20025;-65
2021/07/25 04:52:42;;;;;;;19.90;11.90;;;;;;;;;;5017683;28;20039;-65
2021/07/25 04:55:09;;;;;;;27.60;12.27;;;;;;;;;;5061355;28;20024;-65
2021/07/25 04:57:41;;;;;;;21.40;12.20;;;;;;;;;;5062580;28;20357;-65
2021/07/25 05:00:14;;;;;;;18.13;12.20;;;;;;;;;;5061990;28;20021;-65
2021/07/25 05:02:40;;;;;;;19.42;12.07;;;;;;;;;;5061205;28;20040;-65
2021/07/25 05:05:06;;;;;;;19.77;11.85;;;;;;;;;;5058283;28;20452;-66
2021/07/25 05:07:34;;;;;;;17.42;12.50;;;;;;;;;;5057250;28;20020;-65
2021/07/25 05:09:59;;;;;;;17.02;10.82;;;;;;;;;;5061781;28;20115;-65
2021/07/25 05:12:44;;;;;;;14.43;10.07;;;;;;;;;;5061934;28;20556;-65
2021/07/25 05:15:16;;;;;;;20.10;10.20;;;;;;;;;;5061773;28;20051;-65
2021/07/25 05:17:42;;;;;;;17.48;10.20;;;;;;;;;;5059132;28;20027;-65
2021/07/25 05:20:17;;;;;;;15.15;7.53;;;;;;;;;;5061038;28;20373;-65
2021/07/25 05:22:54;;;;;;;14.48;8.65;;;;;;;;;;5058242;28;20382;-66
2021/07/25 05:25:20;;;;;;;17.38;11.20;;;;;;;;;;5060158;28;20024;-66
2021/07/25 05:27:47;;;;;;;14.35;7.75;;;;;;;;;;5060969;28;20507;-66
2021/07/25 05:30:13;;;;;;;17.13;10.00;;;;;;;;;;5060380;28;20039;-65
2021/07/25 05:32:39;;;;;;;15.68;10.02;;;;;;;;;;5059808;28;20029;-65
2021/07/25 05:35:04;;;;;;;16.40;9.50;;;;;;;;;;5061232;28;20020;-66
2021/07/25 05:37:29;;;;;;;17.35;9.55;;;;;;;;;;5059717;28;20952;-65
2021/07/25 05:39:54;;;;;;;15.13;8.95;;;;;;;;;;5060278;28;20097;-66
2021/07/25 05:42:19;;;;;;;13.80;8.03;;;;;;;;;;5059935;28;20416;-66
2021/07/25 05:44:45;;;;;;;14.97;9.40;;;;;;;;;;5048099;28;20359;-65
2021/07/25 05:47:10;;;;;;;18.50;7.77;;;;;;;;;;5070707;28;20258;-66
2021/07/25 05:49:35;;;;;;;15.88;8.27;;;;;;;;;;5053071;28;20330;-65
2021/07/25 05:52:00;;;;;;;14.77;7.63;;;;;;;;;;5061126;28;20245;-66
2021/07/25 05:54:26;;;;;;;14.88;7.45;;;;;;;;;;5053563;28;20266;-66
2021/07/25 05:56:51;;;;;;;14.60;8.25;;;;;;;;;;5057329;28;20017;-66
2021/07/25 05:59:16;;;;;;;14.17;8.37;;;;;;;;;;5062817;28;20059;-65
2021/07/25 06:01:41;;;;;;;14.17;8.53;;;;;;;;;;5068491;28;20468;-66
2021/07/25 06:04:06;;;;;;;17.77;9.30;;;;;;;;;;5068054;28;20343;-65
2021/07/25 06:06:32;;;;;;;14.05;6.32;;;;;;;;;;5057895;28;20328;-65
2021/07/25 06:08:57;;;;;;;10.10;6.30;;;;;;;;;;5062937;28;20558;-65
2021/07/25 06:11:23;;;;;;;12.63;6.97;;;;;;;;;;5068043;28;20028;-65
2021/07/25 06:13:48;;;;;;;11.50;7.45;;;;;;;;;;5068472;28;20465;-66
2021/07/25 06:16:14;;;;;;;14.02;6.80;;;;;;;;;;5054061;28;20079;-65
2021/07/25 06:18:39;;;;;;;10.80;7.00;;;;;;;;;;5053122;28;20102;-65
2021/07/25 06:21:04;;;;;;;12.70;7.00;;;;;;;;;;5057719;28;20624;-65
2021/07/25 06:23:29;;;;;;;16.43;7.90;;;;;;;;;;5050319;28;20263;-65
2021/07/25 06:25:57;;;;;;;13.25;6.20;;;;;;;;;;5049031;28;21148;-68
2021/07/25 06:28:23;;;;;;;10.82;6.57;;;;;;;;;;5058088;28;20047;-67
2021/07/25 06:30:48;;;;;;;12.87;6.27;;;;;;;;;;5068247;28;20021;-65
2021/07/25 06:33:13;;;;;;;8.40;4.67;;;;;;;;;;5055948;28;20286;-65
2021/07/25 06:35:39;;;;;;;12.07;5.23;;;;;;;;;;5048202;28;20286;-66
2021/07/25 06:38:06;;;;;;;10.40;6.30;;;;;;;;;;5055173;28;20040;-66
2021/07/25 06:40:31;;;;;;;10.00;5.65;;;;;;;;;;5067768;28;20028;-66
2021/07/25 06:42:57;;;;;;;11.55;5.95;;;;;;;;;;5068166;28;20027;-66
2021/07/25 06:45:23;;;;;;;15.75;6.57;;;;;;;;;;5058282;28;20108;-66
2021/07/25 06:47:49;;;;;;;9.30;5.63;;;;;;;;;;5053113;28;20124;-66
2021/07/25 06:50:18;;;;;;;9.00;6.18;;;;;;;;;;5066286;28;20142;-66
2021/07/25 06:52:43;;;;;;;11.05;6.20;;;;;;;;;;5064858;28;20387;-66
2021/07/25 06:55:08;;;;;;;4.35;3.15;;;;;;;;;;5056614;28;20024;-66
2021/07/25 06:57:34;;;;;;;7.80;5.00;;;;;;;;;;5059320;28;20021;-66
2021/07/25 06:59:59;;;;;;;11.23;5.67;;;;;;;;;;5059850;28;20465;-66
2021/07/25 07:02:24;;;;;;;9.32;5.43;;;;;;;;;;5061468;28;20781;-66
2021/07/25 07:04:49;;;;;;;11.30;4.03;;;;;;;;;;5064006;28;20025;-66
2021/07/25 07:07:15;;;;;;;7.22;5.00;;;;;;;;;;5061773;28;20267;-66
2021/07/25 07:09:40;;;;;;;6.37;3.17;;;;;;;;;;5064465;28;20047;-66
2021/07/25 07:12:05;;;;;;;10.53;5.37;;;;;;;;;;5062254;28;20477;-66
2021/07/25 07:14:30;;;;;;;8.82;5.25;;;;;;;;;;5060391;28;20009;-66
2021/07/25 07:16:55;;;;;;;7.63;4.87;;;;;;;;;;5068461;28;20073;-66
2021/07/25 07:19:21;;;;;;;7.80;2.87;;;;;;;;;;5061327;28;20266;-66
2021/07/25 07:21:46;;;;;;;7.18;4.40;;;;;;;;;;5059757;28;20062;-66
2021/07/25 07:24:11;;;;;;;8.20;3.47;;;;;;;;;;5060212;28;20493;-66
2021/07/25 07:26:36;;;;;;;11.67;5.13;;;;;;;;;;5060029;28;20028;-66
2021/07/25 07:29:01;;;;;;;5.73;4.07;;;;;;;;;;5061392;28;20643;-66
2021/07/25 07:31:26;;;;;;;9.10;3.10;;;;;;;;;;5059831;28;20043;-66
2021/07/25 07:33:52;;;;;;;13.77;4.83;;;;;;;;;;5059284;28;20117;-66
2021/07/25 07:36:19;;;;;;;11.48;4.88;;;;;;;;;;5061506;28;20255;-66
2021/07/25 07:38:44;;;;;;;8.90;5.20;;;;;;;;;;5059607;28;20027;-67
2021/07/25 07:41:09;;;;;;;5.93;4.17;;;;;;;;;;5060248;28;20029;-67
2021/07/25 07:43:34;;;;;;;6.67;3.60;;;;;;;;;;5060479;28;20098;-67
2021/07/25 07:45:59;;;;;;;29.43;5.87;;;;;;;;;;5061826;28;20054;-67
2021/07/25 07:48:25;;;;;;;5.35;3.90;;;;;;;;;;5062940;28;20024;-67
2021/07/25 07:50:50;;;;;;;7.65;2.95;;;;;;;;;;5063292;28;20044;-67
2021/07/25 07:53:18;;;;;;;6.32;3.78;;;;;;;;;;5072638;28;20016;-67
2021/07/25 07:55:44;;;;;;;13.07;3.85;;;;;;;;;;5064063;28;20016;-67
2021/07/25 07:58:09;;;;;;;12.57;4.43;;;;;;;;;;5038633;28;20024;-67
2021/07/25 08:00:34;;;;;;;6.47;4.60;;;;;;;;;;5056982;28;20255;-67
2021/07/25 08:02:59;;;;;;;12.00;4.57;;;;;;;;;;5064375;28;20350;-67
2021/07/25 08:05:24;;;;;;;9.93;3.73;;;;;;;;;;5053805;28;20020;-67
2021/07/25 08:07:49;;;;;;;7.97;3.40;;;;;;;;;;5051019;28;20017;-67
2021/07/25 08:10:15;;;;;;;8.50;3.03;;;;;;;;;;5052928;28;20531;-67
2021/07/25 08:12:41;;;;;;;5.68;2.78;;;;;;;;;;5056095;28;20017;-67
2021/07/25 08:15:06;;;;;;;17.75;3.35;;;;;;;;;;5062661;28;20461;-66
2021/07/25 08:17:31;;;;;;;3.85;1.92;;;;;;;;;;5060617;28;20021;-66
2021/07/25 08:19:57;;;;;;;5.93;3.90;;;;;;;;;;5049074;28;20028;-66
2021/07/25 08:22:22;;;;;;;6.97;3.87;;;;;;;;;;5051085;28;20025;-66
2021/07/25 08:24:47;;;;;;;9.55;3.72;;;;;;;;;;5072190;28;20519;-66
2021/07/25 08:27:12;;;;;;;5.43;3.15;;;;;;;;;;5071910;28;20032;-66
2021/07/25 08:29:39;;;;;;;7.00;3.97;;;;;;;;;;5071933;28;20115;-66
2021/07/25 08:32:04;;;;;;;6.40;3.47;;;;;;;;;;5057833;28;20021;-66
2021/07/25 08:34:30;;;;;;;6.78;4.55;;;;;;;;;;5063150;28;20087;-66
2021/07/25 08:36:55;;;;;;;6.88;3.55;;;;;;;;;;5052213;28;20105;-66
2021/07/25 08:39:20;;;;;;;9.88;3.97;;;;;;;;;;5054549;28;20028;-66
2021/07/25 08:42:04;;;;;;;7.05;3.50;;;;;;;;;;5065537;28;20737;-66
2021/07/25 08:44:32;;;;;;;6.03;3.63;;;;;;;;;;5072207;28;20031;-67
2021/07/25 08:46:57;;;;;;;5.90;4.20;;;;;;;;;;5072110;28;20026;-66
2021/07/25 08:49:32;;;;;;;7.50;3.17;;;;;;;;;;5071405;28;20024;-67
2021/07/25 08:51:58;;;;;;;10.35;3.92;;;;;;;;;;5056154;28;20346;-66
2021/07/25 08:54:26;;;;;;;4.90;3.10;;;;;;;;;;5051822;28;20096;-66
2021/07/25 08:56:55;;;;;;;8.65;4.28;;;;;;;;;;5051837;28;20486;-67
2021/07/25 08:59:21;;;;;;;6.22;3.50;;;;;;;;;;5051223;28;20080;-66
2021/07/25 09:01:50;;;;;;;6.13;3.25;;;;;;;;;;5057812;28;20061;-66
2021/07/25 09:04:15;;;;;;;8.10;3.60;;;;;;;;;;5051567;28;20021;-66
2021/07/25 09:06:50;;;;;;;9.88;3.80;;;;;;;;;;5041696;28;20027;-67
2021/07/25 09:09:17;;;;;;;6.82;3.90;;;;;;;;;;5071133;28;20482;-67
2021/07/25 09:11:42;;;;;;;8.30;3.30;;;;;;;;;;5061047;28;20021;-67
2021/07/25 09:14:08;;;;;;;6.65;3.08;;;;;;;;;;5051512;28;20535;-67
2021/07/25 09:16:34;;;;;;;8.82;3.20;;;;;;;;;;5051410;28;20095;-67
2021/07/25 09:19:00;;;;;;;10.55;3.35;;;;;;;;;;5050614;28;20029;-67
2021/07/25 09:21:39;;;;;;;7.47;3.58;;;;;;;;;;5059786;28;20020;-67
2021/07/25 09:24:19;;;;;;;7.90;3.57;;;;;;;;;;5071568;28;20492;-68
2021/07/25 09:27:01;;;;;;;7.60;3.22;;;;;;;;;;5070925;28;20074;-68
2021/07/25 09:29:30;;;;;;;8.27;3.67;;;;;;;;;;5070913;28;20032;-67
2021/07/25 09:32:16;;;;;;;6.07;3.17;;;;;;;;;;5059276;28;20039;-68
2021/07/25 09:34:42;;;;;;;8.32;3.30;;;;;;;;;;5060440;28;20020;-67
2021/07/25 09:37:08;;;;;;;7.55;3.75;;;;;;;;;;5071108;28;20020;-67
2021/07/25 09:39:44;;;;;;;9.15;3.40;;;;;;;;;;5070451;28;20536;-68
2021/07/25 09:42:10;;;;;;;7.32;3.75;;;;;;;;;;5057208;28;20381;-68
2021/07/25 09:44:44;;;;;;;7.88;4.00;;;;;;;;;;5050878;28;20082;-68
2021/07/25 09:47:22;;;;;;;8.35;3.08;;;;;;;;;;5050844;28;20078;-67
2021/07/25 09:49:48;;;;;;;8.07;3.22;;;;;;;;;;5050529;28;20025;-67
2021/07/25 09:52:13;;;;;;;8.77;3.33;;;;;;;;;;5064442;28;20107;-68
2021/07/25 09:54:38;;;;;;;9.53;4.00;;;;;;;;;;5070659;28;20017;-69
2021/07/25 09:57:12;;;;;;;5.70;2.47;;;;;;;;;;5060327;28;20259;-68
2021/07/25 09:59:37;;;;;;;6.40;2.80;;;;;;;;;;5050521;28;20266;-67
2021/07/25 10:02:03;;;;;;;12.20;2.72;;;;;;;;;;5051078;28;20095;-67
2021/07/25 10:04:28;;;;;;;4.72;2.78;;;;;;;;;;5066175;28;20033;-67
2021/07/25 10:06:55;;;;;;;5.22;2.63;;;;;;;;;;5068167;28;20028;-68
2021/07/25 10:09:21;;;;;;;3.90;2.28;;;;;;;;;;5069865;28;20016;-67
2021/07/25 10:11:48;;;;;;;7.47;3.05;;;;;;;;;;5070503;28;20409;-67
2021/07/25 10:14:18;;;;;;;9.60;3.58;;;;;;;;;;5070679;28;20025;-67
2021/07/25 10:16:43;;;;;;;;;;;;;;;;;;5063718;28;20106;-67
2021/07/25 10:19:08;;;;;;;4.50;3.00;;;;;;;;;;5050135;28;19951;-67
2021/07/25 10:21:34;;;;;;;7.75;2.78;;;;;;;;;;5050364;28;20039;-68
2021/07/25 10:23:59;;;;;;;7.35;2.72;;;;;;;;;;5050406;28;20044;-68
2021/07/25 10:26:25;;;;;;;7.88;2.95;;;;;;;;;;5052783;28;20099;-66
2021/07/25 10:28:52;;;;;;;8.60;3.15;;;;;;;;;;5069247;28;20031;-68
2021/07/25 10:31:18;;;;;;;5.60;2.70;;;;;;;;;;5052648;28;20540;-66
2021/07/25 10:33:45;;;;;;;5.93;2.53;;;;;;;;;;5053408;28;20112;-67
2021/07/25 10:36:10;;;;;;;5.97;3.45;;;;;;;;;;5057596;28;20075;-66
2021/07/25 10:38:36;;;;;;;4.45;2.80;;;;;;;;;;5057329;28;20028;-67
2021/07/25 10:41:01;;;;;;;8.17;2.70;;;;;;;;;;5061600;28;20071;-67
2021/07/25 10:43:26;;;;;;;7.97;3.50;;;;;;;;;;5059475;28;20108;-66
2021/07/25 10:46:10;;;;;;;8.87;3.17;;;;;;;;;;5064036;28;20024;-68
2021/07/25 10:48:36;;;;;;;5.90;2.97;;;;;;;;;;5070646;28;20098;-67
2021/07/25 10:51:11;;;;;;;8.00;3.10;;;;;;;;;;5064719;28;20013;-67
2021/07/25 10:53:36;;;;;;;10.13;3.13;;;;;;;;;;5059212;28;20259;-67
2021/07/25 10:56:01;;;;;;;10.55;3.20;;;;;;;;;;5071559;28;20078;-66
2021/07/25 10:58:27;;;;;;;6.87;3.60;;;;;;;;;;5072314;28;20112;-65
2021/07/25 11:00:52;;;;;;;5.57;3.30;;;;;;;;;;5057180;28;20273;-65
2021/07/25 11:03:30;;;;;;;8.23;3.20;;;;;;;;;;5053412;28;20025;-66
2021/07/25 11:06:13;;;;;;;8.70;3.17;;;;;;;;;;5052238;28;20021;-66
2021/07/25 11:08:43;;;;;;;9.32;3.40;;;;;;;;;;5063664;28;20067;-68
2021/07/25 11:11:29;;;;;;;8.50;3.13;;;;;;;;;;5072175;28;20108;-68
2021/07/25 11:13:54;;;;;;;8.27;3.20;;;;;;;;;;5065842;28;20020;-68
2021/07/25 11:16:31;;;;;;;9.73;3.30;;;;;;;;;;5052428;28;20100;-68
2021/07/25 11:19:10;;;;;;;5.57;2.97;;;;;;;;;;5052049;28;20328;-68
2021/07/25 11:21:43;;;;;;;5.60;3.10;;;;;;;;;;5052361;28;20460;-68
2021/07/25 11:24:18;;;;;;;11.32;2.22;;;;;;;;;;5058850;28;20370;-68
2021/07/25 11:26:43;;;;;;;10.15;3.30;;;;;;;;;;5035606;28;1048674;-68
2021/07/25 11:29:09;;;;;;;6.30;2.55;;;;;;;;;;5053400;28;20025;-68
2021/07/25 11:31:41;;;;;;;13.05;2.40;;;;;;;;;;5053405;28;20026;-68
2021/07/25 11:34:08;;;;;;;10.57;2.80;;;;;;;;;;5053169;28;20021;-68
2021/07/25 11:36:33;;;;;;;5.15;2.80;;;;;;;;;;5055182;28;20024;-68
2021/07/25 11:38:59;;;;;;;7.28;2.70;;;;;;;;;;5061634;28;20381;-68
2021/07/25 11:41:25;;;;;;;9.60;3.10;;;;;;;;;;5060317;28;20029;-68
2021/07/25 11:44:00;;;;;;;4.97;2.70;;;;;;;;;;5067692;28;20032;-68
2021/07/25 11:46:27;;;;;;;9.45;3.20;;;;;;;;;;5072544;28;20027;-67
2021/07/25 11:49:04;;;;;;;6.60;3.10;;;;;;;;;;5052763;28;20500;-66
2021/07/25 11:51:29;;;;;;;7.72;2.60;;;;;;;;;;5058371;28;20039;-67
2021/07/25 11:53:55;;;;;;;8.27;2.85;;;;;;;;;;5063625;28;20024;-66
2021/07/25 11:56:20;;;;;;;12.05;3.10;;;;;;;;;;5072242;28;20492;-66
2021/07/25 11:59:05;;;;;;;9.90;2.73;;;;;;;;;;5054638;28;20466;-67
2021/07/25 12:01:30;;;;;;;10.02;3.42;;;;;;;;;;5057764;28;20266;-66
2021/07/25 12:03:56;;;;;;;6.57;2.72;;;;;;;;;;5072204;28;20016;-66
2021/07/25 12:06:21;;;;;;;7.20;3.58;;;;;;;;;;5052333;28;20484;-66
2021/07/25 12:09:08;;;;;;;10.95;2.97;;;;;;;;;;5051798;28;20060;-66
2021/07/25 12:11:34;;;;;;;4.78;2.50;;;;;;;;;;5059350;28;20020;-66
2021/07/25 12:13:59;;;;;;;9.40;3.63;;;;;;;;;;5063755;28;20429;-66
2021/07/25 12:16:24;;;;;;;6.70;2.80;;;;;;;;;;5057448;28;20461;-66
2021/07/25 12:18:50;;;;;;;4.93;2.85;;;;;;;;;;5070036;28;20789;-67
2021/07/25 12:21:29;;;;;;;6.43;2.80;;;;;;;;;;5070018;28;20024;-67
2021/07/25 12:23:54;;;;;;;9.15;2.67;;;;;;;;;;5065214;28;20021;-67
2021/07/25 12:26:36;;;;;;;8.63;2.70;;;;;;;;;;5055236;28;20029;-67
2021/07/25 12:29:01;;;;;;;4.63;2.40;;;;;;;;;;5071128;28;20028;-67
2021/07/25 12:31:27;;;;;;;7.13;2.87;;;;;;;;;;5067422;28;20383;-67
2021/07/25 12:34:02;;;;;;;10.18;2.50;;;;;;;;;;5061011;28;20104;-68
2021/07/25 12:36:31;;;;;;;6.82;3.13;;;;;;;;;;5061374;28;20377;-67
2021/07/25 12:38:57;;;;;;;5.72;1.88;;;;;;;;;;5051527;28;20428;-69
2021/07/25 12:41:39;;;;;;;6.13;2.67;;;;;;;;;;5055234;28;20079;-68
2021/07/25 12:44:05;;;;;;;4.97;2.03;;;;;;;;;;5071195;28;20043;-69
2021/07/25 12:46:30;;;;;;;2.17;1.40;;;;;;;;;;5062152;28;20102;-67
2021/07/25 12:49:05;;;;;;;3.13;2.30;;;;;;;;;;5051198;28;20028;-67
2021/07/25 12:51:41;;;;;;;3.38;1.65;;;;;;;;;;5061127;28;20270;-68
2021/07/25 12:54:07;;;;;;;5.85;2.13;;;;;;;;;;5056993;28;20033;-68
2021/07/25 12:56:33;;;;;;;2.60;1.80;;;;;;;;;;5071599;28;20024;-67
2021/07/25 12:59:04;;;;;;;4.90;1.90;;;;;;;;;;5068984;28;20573;-67
2021/07/25 13:04:12;;;;;;;5.32;1.90;;;;;;;;;;5057652;28;20128;-68
2021/07/25 13:06:39;;;;;;;3.15;1.55;;;;;;;;;;5071075;28;20023;-67
2021/07/25 13:09:06;;;;;;;5.47;2.92;;;;;;;;;;5067435;28;20059;-67
2021/07/25 13:11:32;;;;;;;6.57;2.25;;;;;;;;;;5069487;28;20017;-68
2021/07/25 13:13:58;;;;;;;2.90;1.75;;;;;;;;;;5070535;28;20027;-67
2021/07/25 13:16:23;;;;;;;6.30;2.00;;;;;;;;;;5061215;28;20023;-67
2021/07/25 13:18:50;;;;;;;4.93;2.23;;;;;;;;;;5058415;28;20032;-67
2021/07/25 13:21:17;;;;;;;7.25;1.98;;;;;;;;;;5053670;28;20708;-68
2021/07/25 13:23:42;;;;;;;3.45;1.48;;;;;;;;;;5059196;28;20099;-67
2021/07/25 13:26:08;;;;;;;8.88;1.60;;;;;;;;;;5070375;28;20115;-68
2021/07/25 13:28:33;;;;;;;4.38;1.73;;;;;;;;;;5067809;28;20040;-67
2021/07/25 13:30:59;;;;;;;6.03;1.70;;;;;;;;;;5069980;28;20032;-68
2021/07/25 13:33:27;;;;;;;3.80;1.60;;;;;;;;;;5062692;28;20016;-67
2021/07/25 13:35:52;;;;;;;5.22;2.15;;;;;;;;;;5050219;28;20096;-69
2021/07/25 13:38:17;;;;;;;3.77;2.00;;;;;;;;;;5061622;28;20105;-67
2021/07/25 13:40:42;;;;;;;2.43;1.53;;;;;;;;;;5065821;28;20481;-68
2021/07/25 13:43:11;;;;;;;2.92;1.20;;;;;;;;;;5054774;28;20274;-69
2021/07/25 13:45:39;;;;;;;2.72;1.65;;;;;;;;;;5064902;28;20063;-70
2021/07/25 13:48:04;;;;;;;3.97;1.60;;;;;;;;;;5069516;28;20024;-68
2021/07/25 13:50:30;;;;;;;2.58;1.35;;;;;;;;;;5066812;28;20047;-68
2021/07/25 13:52:55;;;;;;;5.05;1.98;;;;;;;;;;5064313;28;20048;-69
2021/07/25 13:55:21;;;;;;;3.58;1.90;;;;;;;;;;5069790;28;20099;-69
2021/07/25 13:57:46;;;;;;;2.72;1.42;;;;;;;;;;5062661;28;20025;-69
2021/07/25 14:00:11;;;;;;;4.27;1.80;;;;;;;;;;5041207;28;20028;-69
2021/07/25 14:02:36;;;;;;;3.92;1.23;;;;;;;;;;5058600;28;20021;-69
2021/07/25 14:05:02;;;;;;;4.13;1.97;;;;;;;;;;5058990;28;20075;-69
2021/07/25 14:07:27;;;;;;;5.63;1.98;;;;;;;;;;5065603;28;20020;-70
2021/07/25 14:09:52;;;;;;;4.33;2.20;;;;;;;;;;5051000;28;20058;-69
2021/07/25 14:12:17;;;;;;;3.27;1.87;;;;;;;;;;5064775;28;20008;-69
2021/07/25 14:14:42;;;;;;;2.17;1.37;;;;;;;;;;5069951;28;20162;-69
2021/07/25 14:17:08;;;;;;;2.97;1.50;;;;;;;;;;5070311;28;20016;-69
2021/07/25 14:19:33;;;;;;;1.87;1.30;;;;;;;;;;5067877;28;20255;-68
2021/07/25 14:21:59;;;;;;;5.72;1.67;;;;;;;;;;5057713;28;20263;-68
2021/07/25 14:24:24;;;;;;;1.75;0.98;;;;;;;;;;5050699;28;20090;-70
2021/07/25 14:26:49;;;;;;;4.18;1.60;;;;;;;;;;5052383;28;20060;-69
2021/07/25 14:29:14;;;;;;;3.27;1.87;;;;;;;;;;5064058;28;20024;-69
2021/07/25 14:31:40;;;;;;;2.38;1.02;;;;;;;;;;5064494;28;20298;-69